createdAt,value
2022-12-31T00:03:13.242Z,97637.69
2022-12-31T00:08:15.028Z,97661.03
2022-12-31T00:13:17.224Z,97673.81
2022-12-31T00:18:18.991Z,97689.81
2022-12-31T00:23:20.872Z,97695.63
2022-12-31T00:28:22.893Z,97696.28
2022-12-31T00:33:24.730Z,97691.41
2022-12-31T00:38:26.474Z,97719.56
2022-12-31T00:43:28.350Z,97721.81
2022-12-31T00:48:30.247Z,97733.28
2022-12-31T00:53:33.503Z,97744.75
2022-12-31T00:58:35.481Z,97739.19
2022-12-31T01:03:37.515Z,97743.84
2022-12-31T01:08:39.745Z,97747.91
2022-12-31T01:13:41.552Z,97754.53
2022-12-31T01:18:43.466Z,97773.78
2022-12-31T01:23:45.781Z,97771.28
2022-12-31T01:28:48.334Z,97760.38
2022-12-31T01:33:51.413Z,97769.44
2022-12-31T01:38:54.831Z,97789.66
2022-12-31T01:44:03.227Z,97791.91
2022-12-31T01:49:32.967Z,97804.00
2022-12-31T01:54:40.711Z,97799.72
2022-12-31T01:59:43.751Z,97803.25
2022-12-31T02:04:46.564Z,97817.47
2022-12-31T02:09:48.729Z,97800.75
2022-12-31T02:14:53.894Z,97794.03
2022-12-31T02:20:33.095Z,97800.31
2022-12-31T02:25:43.689Z,97808.38
2022-12-31T02:30:50.699Z,97800.69
2022-12-31T02:36:05.602Z,97811.16
2022-12-31T02:41:33.598Z,97794.06
2022-12-31T02:46:45.604Z,97797.72
2022-12-31T02:52:06.690Z,97801.59
2022-12-31T02:57:36.636Z,97795.84
2022-12-31T03:02:43.104Z,97768.88
2022-12-31T03:07:45.788Z,97768.50
2022-12-31T03:12:48.800Z,97786.97
2022-12-31T03:18:12.774Z,97788.84
2022-12-31T03:23:19.750Z,97789.13
2022-12-31T03:28:25.813Z,97796.56
2022-12-31T03:33:35.693Z,97794.25
2022-12-31T03:38:37.659Z,97791.47
2022-12-31T03:43:39.673Z,97802.66
2022-12-31T03:48:43.973Z,97788.31
2022-12-31T03:53:45.813Z,97783.38
2022-12-31T03:58:47.679Z,97790.00
2022-12-31T04:03:49.919Z,97793.22
2022-12-31T04:08:51.796Z,97789.44
2022-12-31T04:13:53.601Z,97784.88
2022-12-31T04:18:55.460Z,97783.09
2022-12-31T04:23:57.377Z,97777.69
2022-12-31T04:28:59.274Z,97782.53
2022-12-31T04:34:01.161Z,97781.97
2022-12-31T04:39:03.037Z,97777.84
2022-12-31T04:44:04.965Z,97775.47
2022-12-31T04:49:07.019Z,97753.94
2022-12-31T04:54:08.884Z,97770.78
2022-12-31T04:59:10.792Z,97770.16
2022-12-31T05:04:12.747Z,97760.56
2022-12-31T05:09:14.488Z,97770.78
2022-12-31T05:14:16.333Z,97767.00
2022-12-31T05:19:18.338Z,97765.84
2022-12-31T05:24:20.132Z,97760.44
2022-12-31T05:29:22.185Z,97764.28
2022-12-31T05:34:24.081Z,97759.69
2022-12-31T05:39:25.859Z,97766.50
2022-12-31T05:44:27.869Z,97777.16
2022-12-31T05:49:29.934Z,97766.44
2022-12-31T05:54:31.988Z,97784.28
2022-12-31T05:59:34.648Z,97777.53
2022-12-31T06:04:36.523Z,97789.16
2022-12-31T06:09:38.507Z,97805.03
2022-12-31T06:14:45.385Z,97807.63
2022-12-31T06:19:48.050Z,97805.22
2022-12-31T06:24:50.656Z,97806.84
2022-12-31T06:29:52.423Z,97800.03
2022-12-31T06:34:54.270Z,97799.22
2022-12-31T06:39:56.182Z,97788.59
2022-12-31T06:44:59.308Z,97784.22
2022-12-31T06:50:01.069Z,97787.63
2022-12-31T06:55:03.445Z,97786.81
2022-12-31T07:00:05.948Z,97812.66
2022-12-31T07:05:11.744Z,97808.06
2022-12-31T07:10:29.763Z,97817.13
2022-12-31T07:15:57.774Z,97835.59
2022-12-31T07:20:59.997Z,97832.59
2022-12-31T07:26:22.138Z,97833.22
2022-12-31T07:31:51.536Z,97834.03
2022-12-31T07:37:20.770Z,97838.44
2022-12-31T07:42:38.888Z,97823.25
2022-12-31T07:47:40.667Z,97817.69
2022-12-31T07:52:43.130Z,97821.56
2022-12-31T07:58:07.017Z,97819.44
2022-12-31T08:03:45.919Z,97821.31
2022-12-31T08:09:03.618Z,97825.81
2022-12-31T08:14:10.575Z,97844.53
2022-12-31T08:19:31.135Z,97849.19
2022-12-31T08:24:57.270Z,97866.28
2022-12-31T08:30:15.569Z,97862.34
2022-12-31T08:35:26.446Z,97861.38
2022-12-31T08:40:54.356Z,97860.97
2022-12-31T08:45:58.107Z,97878.28
2022-12-31T08:51:00.256Z,97885.13
2022-12-31T08:56:28.704Z,97875.91
2022-12-31T09:01:36.811Z,97891.41
2022-12-31T09:06:47.345Z,97886.41
2022-12-31T09:12:22.463Z,97880.03
2022-12-31T09:17:44.819Z,97895.75
2022-12-31T09:22:46.956Z,97903.81
2022-12-31T09:28:17.233Z,97915.50
2022-12-31T09:34:07.547Z,97921.53
2022-12-31T09:39:23.106Z,97923.72
2022-12-31T09:44:59.019Z,97919.09
2022-12-31T09:50:29.291Z,97921.53
2022-12-31T09:55:40.057Z,97923.94
2022-12-31T10:01:23.806Z,97918.31
2022-12-31T10:07:09.969Z,97907.06
2022-12-31T10:12:49.982Z,97905.06
2022-12-31T10:18:06.764Z,97915.31
2022-12-31T10:23:27.735Z,97911.09
2022-12-31T10:28:56.043Z,97905.28
2022-12-31T10:34:00.681Z,97925.19
2022-12-31T10:39:31.377Z,97905.50
2022-12-31T10:44:57.950Z,97909.72
2022-12-31T10:50:37.015Z,97900.88
2022-12-31T10:55:59.147Z,97916.34
2022-12-31T11:01:22.632Z,97918.97
2022-12-31T11:06:43.204Z,97916.34
2022-12-31T11:12:21.927Z,97901.88
2022-12-31T11:17:37.229Z,97893.84
2022-12-31T11:22:44.847Z,97903.88
2022-12-31T11:28:21.605Z,97909.31
2022-12-31T11:33:57.549Z,97908.50
2022-12-31T11:39:13.788Z,97893.44
2022-12-31T11:44:24.126Z,97908.50
2022-12-31T11:49:41.507Z,97913.34
2022-12-31T11:54:50.624Z,97916.97
2022-12-31T11:59:57.994Z,97906.69
2022-12-31T12:05:10.364Z,97906.47
2022-12-31T12:10:36.385Z,97915.13
2022-12-31T12:15:40.134Z,97900.63
2022-12-31T12:20:46.440Z,97890.56
2022-12-31T12:25:48.392Z,97906.84
2022-12-31T12:31:05.259Z,97910.22
2022-12-31T12:36:15.886Z,97931.16
2022-12-31T12:41:25.503Z,97929.13
2022-12-31T12:46:41.570Z,97922.88
2022-12-31T12:52:16.384Z,97935.56
2022-12-31T12:57:34.563Z,97925.88
2022-12-31T13:02:40.515Z,97933.75
2022-12-31T13:08:15.642Z,97916.22
2022-12-31T13:13:43.444Z,97918.25
2022-12-31T13:19:13.219Z,97919.44
2022-12-31T13:24:47.507Z,97908.97
2022-12-31T13:29:50.899Z,97915.63
2022-12-31T13:34:59.043Z,97925.91
2022-12-31T13:40:27.593Z,97927.13
2022-12-31T13:45:38.911Z,97950.47
2022-12-31T13:51:12.901Z,97947.66
2022-12-31T13:56:25.252Z,97934.97
2022-12-31T14:01:42.524Z,97964.97
2022-12-31T14:07:08.890Z,97961.75
2022-12-31T14:12:18.471Z,97974.44
2022-12-31T14:18:11.222Z,97970.22
2022-12-31T14:23:38.094Z,97975.06
2022-12-31T14:28:56.513Z,97972.25
2022-12-31T14:34:03.976Z,97970.25
2022-12-31T14:39:25.447Z,97984.53
2022-12-31T14:44:53.172Z,97996.00
2022-12-31T14:50:21.251Z,97999.22
2022-12-31T14:55:25.298Z,98011.50
2022-12-31T15:00:39.609Z,98006.47
2022-12-31T15:05:51.885Z,98013.31
2022-12-31T15:11:08.827Z,98012.13
2022-12-31T15:16:25.109Z,98038.88
2022-12-31T15:21:29.900Z,98048.94
2022-12-31T15:26:33.766Z,98048.34
2022-12-31T15:31:36.820Z,98050.34
2022-12-31T15:36:54.755Z,98055.16
2022-12-31T15:47:34.567Z,98063.22
2022-12-31T15:52:48.123Z,98065.22
2022-12-31T15:57:50.879Z,98063.25
2022-12-31T16:02:55.674Z,98054.59
2022-12-31T16:07:59.711Z,98071.28
2022-12-31T16:13:01.603Z,98068.47
2022-12-31T16:18:20.808Z,98065.84
2022-12-31T16:23:27.608Z,98083.34
2022-12-31T16:28:32.557Z,98081.75
2022-12-31T16:33:34.535Z,98073.25
2022-12-31T16:38:37.736Z,98076.88
2022-12-31T16:43:43.708Z,98083.50
2022-12-31T16:49:09.109Z,98075.06
2022-12-31T16:54:25.960Z,98082.91
2022-12-31T16:59:40.956Z,98086.13
2022-12-31T17:04:55.366Z,98079.69
2022-12-31T17:10:25.027Z,98097.44
2022-12-31T17:15:38.799Z,98093.81
2022-12-31T17:20:41.256Z,98098.00
2022-12-31T17:25:43.090Z,98097.00
2022-12-31T17:30:44.952Z,98095.59
2022-12-31T17:35:46.846Z,98097.03
2022-12-31T17:41:16.193Z,98112.94
2022-12-31T17:46:18.137Z,98112.72
2022-12-31T17:51:24.327Z,98124.81
2022-12-31T17:56:26.579Z,98122.38
2022-12-31T18:01:28.424Z,98125.41
2022-12-31T18:06:30.340Z,98120.56
2022-12-31T18:11:32.237Z,98119.16
2022-12-31T18:16:34.151Z,98128.41
2022-12-31T18:21:36.205Z,98124.16
2022-12-31T18:26:38.042Z,98133.25
2022-12-31T18:31:39.941Z,98120.34
2022-12-31T18:36:42.240Z,98121.16
2022-12-31T18:41:49.496Z,98116.31
2022-12-31T18:46:51.557Z,98118.50
2022-12-31T18:51:57.245Z,98112.06
2022-12-31T18:56:59.102Z,98113.06
2022-12-31T19:02:01.088Z,98108.22
2022-12-31T19:07:03.357Z,98102.59
2022-12-31T19:12:05.624Z,98112.22
2022-12-31T19:22:14.918Z,98095.34
2022-12-31T19:27:17.258Z,98097.78
2022-12-31T19:32:19.101Z,98099.38
2022-12-31T19:37:35.060Z,98091.34
2022-12-31T19:42:36.858Z,98085.31
2022-12-31T19:47:38.625Z,98067.06
2022-12-31T19:52:40.612Z,98077.31
2022-12-31T19:57:43.083Z,98069.47
2022-12-31T20:02:46.991Z,98067.06
2022-12-31T20:07:48.990Z,98068.88
2022-12-31T20:12:50.816Z,98071.88
2022-12-31T20:17:52.660Z,98068.88
2022-12-31T20:22:55.377Z,98066.84
2022-12-31T20:27:57.247Z,98081.97
2022-12-31T20:32:59.167Z,98085.38
2022-12-31T20:38:01.075Z,98080.56
2022-12-31T20:43:03.011Z,98084.56
2022-12-31T20:48:04.927Z,98085.78
2022-12-31T20:53:07.065Z,98076.72
2022-12-31T20:58:08.790Z,98080.34
2022-12-31T21:03:30.171Z,98083.78
2022-12-31T21:08:35.137Z,98083.56
2022-12-31T21:13:37.300Z,98085.78
2022-12-31T21:18:39.144Z,98074.31
2022-12-31T21:23:41.003Z,98063.84
2022-12-31T21:28:43.096Z,98069.06
2022-12-31T21:33:46.531Z,98058.81
2022-12-31T21:38:48.522Z,98056.19
2022-12-31T21:43:50.428Z,98058.41
2022-12-31T21:48:57.483Z,98045.13
2022-12-31T21:53:59.276Z,98065.03
2022-12-31T21:59:19.582Z,98056.38
2022-12-31T22:04:59.829Z,98064.25
2022-12-31T22:09:43.455Z,98076.53
2022-12-31T22:15:14.379Z,98083.78
2022-12-31T22:20:28.404Z,98101.09
2022-12-31T22:25:30.517Z,98112.34
2022-12-31T22:30:33.116Z,98111.56
2022-12-31T22:35:35.259Z,98121.41
2022-12-31T22:40:37.304Z,98127.25
2022-12-31T22:45:39.366Z,98131.09
2022-12-31T22:50:41.264Z,98136.94
2022-12-31T22:55:43.186Z,98141.16
2022-12-31T23:00:45.369Z,98147.41
2022-12-31T23:05:51.927Z,98152.03
2022-12-31T23:11:00.340Z,98162.69
2022-12-31T23:16:20.803Z,98164.50
2022-12-31T23:21:41.061Z,98176.00
2022-12-31T23:26:44.339Z,98168.75
2022-12-31T23:31:46.447Z,98193.09
2022-12-31T23:36:48.673Z,98188.88
2022-12-31T23:41:50.601Z,98181.44
2022-12-31T23:46:52.484Z,98186.25
2022-12-31T23:51:54.334Z,98202.16
2022-12-31T23:56:56.417Z,98207.78
